createdAt,value
2023-03-22T00:01:17.047Z,82.24
2023-03-22T00:03:45.395Z,82.34
2023-03-22T00:06:14.179Z,82.37
2023-03-22T00:08:44.121Z,82.50
2023-03-22T00:11:13.140Z,82.61
2023-03-22T00:13:42.929Z,82.59
2023-03-22T00:16:11.812Z,82.80
2023-03-22T00:18:39.799Z,82.85
2023-03-22T00:21:12.473Z,82.89
2023-03-22T00:23:40.821Z,82.94
2023-03-22T00:26:11.264Z,83.26
2023-03-22T00:28:40.682Z,83.15
2023-03-22T00:31:09.558Z,83.20
2023-03-22T00:33:38.192Z,83.32
2023-03-22T00:36:08.991Z,83.30
2023-03-22T00:38:42.863Z,83.43
2023-03-22T00:41:15.978Z,83.58
2023-03-22T00:43:46.272Z,83.56
2023-03-22T00:46:15.130Z,83.61
2023-03-22T00:48:43.708Z,83.66
2023-03-22T00:51:12.092Z,83.58
2023-03-22T00:53:42.873Z,83.56
2023-03-22T00:56:15.626Z,83.65
2023-03-22T00:58:55.068Z,83.70
2023-03-22T01:01:23.026Z,83.72
2023-03-22T01:03:51.090Z,83.68
2023-03-22T01:06:19.548Z,83.83
2023-03-22T01:08:50.640Z,83.81
2023-03-22T01:11:19.912Z,83.80
2023-03-22T01:13:48.235Z,83.88
2023-03-22T01:16:16.590Z,83.72
2023-03-22T01:18:44.818Z,83.68
2023-03-22T01:21:13.122Z,83.66
2023-03-22T01:23:41.443Z,83.71
2023-03-22T01:26:11.967Z,83.74
2023-03-22T01:28:41.520Z,83.70
2023-03-22T01:31:09.494Z,83.93
2023-03-22T01:33:37.764Z,83.83
2023-03-22T01:36:06.568Z,83.97
2023-03-22T01:38:35.934Z,84.78
2023-03-22T01:41:04.092Z,84.00
2023-03-22T01:43:35.432Z,83.51
2023-03-22T01:46:05.192Z,83.61
2023-03-22T01:48:36.381Z,83.13
2023-03-22T01:51:09.073Z,83.56
2023-03-22T01:53:49.641Z,83.12
2023-03-22T01:56:20.614Z,83.33
2023-03-22T01:58:49.976Z,83.10
2023-03-22T02:01:23.989Z,83.45
2023-03-22T02:03:58.293Z,83.23
2023-03-22T02:06:29.923Z,83.03
2023-03-22T02:09:05.402Z,83.34
2023-03-22T02:11:36.225Z,82.84
2023-03-22T02:14:28.850Z,83.35
2023-03-22T02:17:18.415Z,83.05
2023-03-22T02:20:38.821Z,83.54
2023-03-22T02:23:56.635Z,82.98
2023-03-22T02:26:47.010Z,83.28
2023-03-22T02:29:21.946Z,83.48
2023-03-22T02:32:12.588Z,83.31
2023-03-22T02:35:10.254Z,83.33
2023-03-22T02:38:19.641Z,83.23
2023-03-22T02:40:53.816Z,83.53
2023-03-22T02:43:34.188Z,83.51
2023-03-22T02:46:08.658Z,83.71
2023-03-22T02:48:41.554Z,83.19
2023-03-22T02:51:14.505Z,83.09
2023-03-22T02:53:46.912Z,83.43
2023-03-22T02:56:21.984Z,83.38
2023-03-22T02:58:53.356Z,83.45
2023-03-22T03:01:25.873Z,83.27
2023-03-22T03:03:57.600Z,83.44
2023-03-22T03:06:28.867Z,83.80
2023-03-22T03:08:57.992Z,83.80
2023-03-22T03:11:28.656Z,83.77
2023-03-22T03:13:56.779Z,83.76
2023-03-22T03:16:29.390Z,83.74
2023-03-22T03:19:01.677Z,83.27
2023-03-22T03:21:37.611Z,83.72
2023-03-22T03:24:21.212Z,83.53
2023-03-22T03:26:57.383Z,83.66
2023-03-22T03:29:34.198Z,83.65
2023-03-22T03:32:07.864Z,83.77
2023-03-22T03:34:43.138Z,83.75
2023-03-22T03:37:15.050Z,83.35
2023-03-22T03:39:46.774Z,83.72
2023-03-22T03:42:18.780Z,83.65
2023-03-22T03:44:47.543Z,83.84
2023-03-22T03:47:16.841Z,83.85
2023-03-22T03:49:46.514Z,83.96
2023-03-22T03:52:15.088Z,83.65
2023-03-22T03:54:43.019Z,83.75
2023-03-22T03:57:17.565Z,83.40
2023-03-22T03:59:45.389Z,83.53
2023-03-22T04:02:24.286Z,83.64
2023-03-22T04:04:54.468Z,83.53
2023-03-22T04:07:22.403Z,83.33
2023-03-22T04:09:50.245Z,83.64
2023-03-22T04:12:24.778Z,83.73
2023-03-22T04:15:14.094Z,83.90
2023-03-22T04:17:44.278Z,83.80
2023-03-22T04:20:13.772Z,83.86
2023-03-22T04:22:42.570Z,84.04
2023-03-22T04:25:13.424Z,83.80
2023-03-22T04:27:55.743Z,83.98
2023-03-22T04:30:24.662Z,83.76
2023-03-22T04:33:13.147Z,84.10
2023-03-22T04:36:02.002Z,83.47
2023-03-22T04:38:36.035Z,84.05
2023-03-22T04:41:05.437Z,83.99
2023-03-22T04:43:42.593Z,83.69
2023-03-22T04:46:15.576Z,83.78
2023-03-22T04:48:49.304Z,83.73
2023-03-22T04:51:18.371Z,83.73
2023-03-22T04:54:08.762Z,83.51
2023-03-22T04:56:39.932Z,83.70
2023-03-22T04:59:10.859Z,83.57
2023-03-22T05:01:40.688Z,83.52
2023-03-22T05:04:18.175Z,83.45
2023-03-22T05:06:46.657Z,83.83
2023-03-22T05:09:23.832Z,83.52
2023-03-22T05:11:54.024Z,83.24
2023-03-22T05:14:30.952Z,83.45
2023-03-22T05:16:58.695Z,83.39
2023-03-22T05:19:27.612Z,83.35
2023-03-22T05:21:58.610Z,83.28
2023-03-22T05:24:39.533Z,83.22
2023-03-22T05:27:10.943Z,83.29
2023-03-22T05:29:45.045Z,83.30
2023-03-22T05:32:25.676Z,83.32
2023-03-22T05:34:56.176Z,83.22
2023-03-22T05:37:33.577Z,83.20
2023-03-22T05:40:02.166Z,83.55
2023-03-22T05:42:38.746Z,82.92
2023-03-22T05:45:18.078Z,82.98
2023-03-22T05:47:50.501Z,82.58
2023-03-22T05:50:23.505Z,82.56
2023-03-22T05:52:52.332Z,82.44
2023-03-22T05:55:23.228Z,82.21
2023-03-22T05:57:56.574Z,82.00
2023-03-22T06:00:28.508Z,81.99
2023-03-22T06:03:22.930Z,81.85
2023-03-22T06:05:59.511Z,81.66
2023-03-22T06:08:39.365Z,81.58
2023-03-22T06:11:07.831Z,81.15
2023-03-22T06:13:37.378Z,81.11
2023-03-22T06:16:07.922Z,80.86
2023-03-22T06:18:35.982Z,80.87
2023-03-22T06:21:09.305Z,80.83
2023-03-22T06:23:38.269Z,80.61
2023-03-22T06:26:07.244Z,80.26
2023-03-22T06:28:37.081Z,80.56
2023-03-22T06:31:11.445Z,79.94
2023-03-22T06:33:50.809Z,78.72
2023-03-22T06:36:26.694Z,79.10
2023-03-22T06:39:10.293Z,78.79
2023-03-22T06:41:38.729Z,78.74
2023-03-22T06:44:06.674Z,78.83
2023-03-22T06:47:05.707Z,77.93
2023-03-22T06:50:09.464Z,76.93
2023-03-22T06:53:00.718Z,74.89
2023-03-22T06:55:33.221Z,75.01
2023-03-22T06:58:02.378Z,75.82
2023-03-22T07:00:30.884Z,76.86
2023-03-22T07:03:01.892Z,77.48
2023-03-22T07:05:37.425Z,77.73
2023-03-22T07:08:05.367Z,77.99
2023-03-22T07:10:36.507Z,78.39
2023-03-22T07:13:04.388Z,78.31
2023-03-22T07:15:34.343Z,77.88
2023-03-22T07:18:11.580Z,77.89
2023-03-22T07:20:41.683Z,77.74
2023-03-22T07:23:10.783Z,77.81
2023-03-22T07:25:47.225Z,77.42
2023-03-22T07:28:28.789Z,77.16
2023-03-22T07:31:02.461Z,76.78
2023-03-22T07:33:36.784Z,76.93
2023-03-22T07:36:04.828Z,77.22
2023-03-22T07:38:33.007Z,77.12
2023-03-22T07:41:00.925Z,77.23
2023-03-22T07:43:53.949Z,77.39
2023-03-22T07:46:24.699Z,77.21
2023-03-22T07:49:20.036Z,77.24
2023-03-22T07:52:06.561Z,76.95
2023-03-22T07:54:34.789Z,76.35
2023-03-22T07:57:06.869Z,76.20
2023-03-22T07:59:40.082Z,74.79
2023-03-22T08:02:11.091Z,74.01
2023-03-22T08:04:47.988Z,73.04
2023-03-22T08:07:30.327Z,73.35
2023-03-22T08:09:59.331Z,74.03
2023-03-22T08:12:28.696Z,74.77
2023-03-22T08:15:06.802Z,75.35
2023-03-22T08:17:35.977Z,74.97
2023-03-22T08:20:08.729Z,75.13
2023-03-22T08:22:46.680Z,74.09
2023-03-22T08:25:33.514Z,73.95
2023-03-22T08:28:08.525Z,73.77
2023-03-22T08:30:38.350Z,73.06
2023-03-22T08:33:07.278Z,74.27
2023-03-22T08:35:36.605Z,74.74
2023-03-22T08:38:04.329Z,74.73
2023-03-22T08:40:41.324Z,74.41
2023-03-22T08:43:09.490Z,74.63
2023-03-22T08:45:38.462Z,74.79
2023-03-22T08:48:11.948Z,74.25
2023-03-22T08:51:01.073Z,74.20
2023-03-22T08:53:37.906Z,74.40
2023-03-22T08:56:28.921Z,74.23
2023-03-22T08:59:10.519Z,74.22
2023-03-22T09:01:53.514Z,74.27
2023-03-22T09:04:21.524Z,74.27
2023-03-22T09:06:50.852Z,73.99
2023-03-22T09:09:18.573Z,73.76
2023-03-22T09:11:50.277Z,73.01
2023-03-22T09:14:18.140Z,73.92
2023-03-22T09:16:48.666Z,74.03
2023-03-22T09:19:17.069Z,74.12
2023-03-22T09:21:45.963Z,73.62
2023-03-22T09:24:27.092Z,73.20
2023-03-22T09:26:58.159Z,73.60
2023-03-22T09:29:26.220Z,73.06
2023-03-22T09:31:54.145Z,73.24
2023-03-22T09:34:27.082Z,73.05
2023-03-22T09:36:58.696Z,72.97
2023-03-22T09:39:32.426Z,72.41
2023-03-22T09:42:07.527Z,72.18
2023-03-22T09:44:39.903Z,71.97
2023-03-22T09:47:17.789Z,71.04
2023-03-22T09:49:53.634Z,70.90
2023-03-22T09:52:22.093Z,70.55
2023-03-22T09:54:53.119Z,70.07
2023-03-22T09:57:28.642Z,69.72
2023-03-22T10:00:07.260Z,70.30
2023-03-22T10:02:51.444Z,70.49
2023-03-22T10:05:25.215Z,71.11
2023-03-22T10:08:18.964Z,70.15
2023-03-22T10:10:48.316Z,70.53
2023-03-22T10:13:22.775Z,70.54
2023-03-22T10:15:53.251Z,70.81
2023-03-22T10:18:25.813Z,69.99
2023-03-22T10:20:59.828Z,69.82
2023-03-22T10:23:32.650Z,69.77
2023-03-22T10:26:03.839Z,69.87
2023-03-22T10:28:36.556Z,70.18
2023-03-22T10:31:05.888Z,70.43
2023-03-22T10:33:39.166Z,70.22
2023-03-22T10:36:13.554Z,69.56
2023-03-22T10:38:47.716Z,69.73
2023-03-22T10:41:19.544Z,69.72
2023-03-22T10:43:53.070Z,69.38
2023-03-22T10:46:24.331Z,69.46
2023-03-22T10:48:58.229Z,68.69
2023-03-22T10:51:29.071Z,68.33
2023-03-22T10:53:58.239Z,69.01
2023-03-22T10:56:27.450Z,68.35
2023-03-22T10:58:57.105Z,68.72
2023-03-22T11:01:31.579Z,69.45
2023-03-22T11:04:06.803Z,69.74
2023-03-22T11:06:39.156Z,69.78
2023-03-22T11:09:14.572Z,69.16
2023-03-22T11:11:51.561Z,69.46
2023-03-22T11:14:23.950Z,69.08
2023-03-22T11:16:56.090Z,68.81
2023-03-22T11:19:27.437Z,68.60
2023-03-22T11:21:56.237Z,68.26
2023-03-22T11:24:26.434Z,68.36
2023-03-22T11:27:07.049Z,67.52
2023-03-22T11:29:43.334Z,68.14
2023-03-22T11:32:23.489Z,68.43
2023-03-22T11:35:01.463Z,68.39
2023-03-22T11:37:29.533Z,68.47
2023-03-22T11:40:02.066Z,68.51
2023-03-22T11:42:34.953Z,68.70
2023-03-22T11:45:03.164Z,67.84
2023-03-22T11:47:37.619Z,67.46
2023-03-22T11:50:10.690Z,67.48
2023-03-22T11:52:38.860Z,67.61
2023-03-22T11:55:07.238Z,67.55
2023-03-22T11:57:37.892Z,67.81
2023-03-22T12:00:15.086Z,67.94
2023-03-22T12:02:47.717Z,68.40
2023-03-22T12:05:21.892Z,68.79
2023-03-22T12:07:55.262Z,68.89
2023-03-22T12:10:29.073Z,68.91
2023-03-22T12:13:01.829Z,69.33
2023-03-22T12:15:32.957Z,69.44
2023-03-22T12:18:07.871Z,69.65
2023-03-22T12:20:43.100Z,68.88
2023-03-22T12:23:16.512Z,68.57
2023-03-22T12:25:50.607Z,69.02
2023-03-22T12:28:23.338Z,69.14
2023-03-22T12:30:56.177Z,69.52
2023-03-22T12:33:28.377Z,69.72
2023-03-22T12:35:59.718Z,69.57
2023-03-22T12:38:35.474Z,68.74
2023-03-22T12:41:06.947Z,68.49
2023-03-22T12:43:43.712Z,68.64
2023-03-22T12:46:19.430Z,67.99
2023-03-22T12:48:51.529Z,68.26
2023-03-22T12:51:19.521Z,68.42
2023-03-22T12:53:50.726Z,68.09
2023-03-22T12:56:21.546Z,67.95
2023-03-22T12:58:52.817Z,68.11
2023-03-22T13:01:26.382Z,67.96
2023-03-22T13:03:57.691Z,67.88
2023-03-22T13:06:35.067Z,68.03
2023-03-22T13:09:15.686Z,68.22
2023-03-22T13:11:45.423Z,68.50
2023-03-22T13:14:56.009Z,68.18
2023-03-22T13:17:43.559Z,69.26
2023-03-22T13:20:28.819Z,69.16
2023-03-22T13:23:21.825Z,69.23
2023-03-22T13:26:06.521Z,68.96
2023-03-22T13:28:38.095Z,69.45
2023-03-22T13:31:07.742Z,69.11
2023-03-22T13:33:37.747Z,69.47
2023-03-22T13:36:09.661Z,69.34
2023-03-22T13:38:42.389Z,69.42
2023-03-22T13:41:21.577Z,70.29
2023-03-22T13:43:51.323Z,70.46
2023-03-22T13:46:45.677Z,70.45
2023-03-22T13:49:23.863Z,70.59
2023-03-22T13:51:52.603Z,71.04
2023-03-22T13:54:24.886Z,71.31
2023-03-22T13:56:56.963Z,71.52
2023-03-22T13:59:30.943Z,71.38
2023-03-22T14:02:04.826Z,71.53
2023-03-22T14:04:40.631Z,71.82
2023-03-22T14:07:20.547Z,71.55
2023-03-22T14:09:52.190Z,71.29
2023-03-22T14:12:23.535Z,71.46
2023-03-22T14:14:56.804Z,71.38
2023-03-22T14:17:35.449Z,71.21
2023-03-22T14:20:10.493Z,71.68
